sensor_id;sensor_type;location;lat;lon;timestamp;P1;durP1;ratioP1;P2;durP2;ratioP2
13057;SDS011;6595;49.578;11.012;2024-01-15T00:00:23;40.3;;;13.7;;
13057;SDS011;6595;49.578;11.012;2024-01-15T00:02:23;36.6;;;13.1;;
13057;SDS011;6595;49.578;11.012;2024-01-15T00:04:23;36.6;;;13.1;;
13057;SDS011;6595;49.578;11.012;2024-01-15T00:06:23;34.7;;;12.6;;
13057;SDS011;6595;49.578;11.012;2024-01-15T00:08:23;37.5;;;13.1;;
13057;SDS011;6595;49.578;11.012;2024-01-15T00:10:23;38.0;;;12.4;;
13057;SDS011;6595;49.578;11.012;2024-01-15T00:12:24;34.5;;;12.5;;
13057;SDS011;6595;49.578;11.012;2024-01-15T00:14:23;34.5;;;12.5;;
13057;SDS011;6595;49.578;11.012;2024-01-15T00:16:24;35.1;;;12.2;;
13057;SDS011;6595;49.578;11.012;2024-01-15T00:18:24;43.5;;;13.2;;
13057;SDS011;6595;49.578;11.012;2024-01-15T00:20:24;41.0;;;13.4;;
13057;SDS011;6595;49.578;11.012;2024-01-15T00:22:24;41.0;;;13.4;;
13057;SDS011;6595;49.578;11.012;2024-01-15T00:24:23;43.8;;;13.7;;
13057;SDS011;6595;49.578;11.012;2024-01-15T00:26:23;40.2;;;13.3;;
13057;SDS011;6595;49.578;11.012;2024-01-15T00:28:23;40.4;;;12.9;;
13057;SDS011;6595;49.578;11.012;2024-01-15T00:30:23;40.4;;;12.9;;
13057;SDS011;6595;49.578;11.012;2024-01-15T00:32:23;36.6;;;12.9;;
13057;SDS011;6595;49.578;11.012;2024-01-15T00:34:23;38.4;;;13.5;;
13057;SDS011;6595;49.578;11.012;2024-01-15T00:36:23;40.7;;;13.1;;
13057;SDS011;6595;49.578;11.012;2024-01-15T00:38:23;42.1;;;13.2;;
13057;SDS011;6595;49.578;11.012;2024-01-15T00:40:23;39.6;;;11.9;;
13057;SDS011;6595;49.578;11.012;2024-01-15T00:42:23;39.6;;;11.9;;
13057;SDS011;6595;49.578;11.012;2024-01-15T00:44:23;40.1;;;12.8;;
13057;SDS011;6595;49.578;11.012;2024-01-15T00:46:23;38.5;;;13.7;;
13057;SDS011;6595;49.578;11.012;2024-01-15T00:48:24;38.2;;;12.9;;
13057;SDS011;6595;49.578;11.012;2024-01-15T00:50:24;36.5;;;12.5;;
13057;SDS011;6595;49.578;11.012;2024-01-15T00:52:23;36.5;;;12.5;;
13057;SDS011;6595;49.578;11.012;2024-01-15T00:54:23;38.7;;;12.5;;
13057;SDS011;6595;49.578;11.012;2024-01-15T00:56:23;33.7;;;12.8;;
13057;SDS011;6595;49.578;11.012;2024-01-15T00:58:23;37.3;;;13.3;;
13057;SDS011;6595;49.578;11.012;2024-01-15T01:00:23;37.5;;;11.4;;
13057;SDS011;6595;49.578;11.012;2024-01-15T01:02:23;37.5;;;11.4;;
13057;SDS011;6595;49.578;11.012;2024-01-15T01:04:23;39.4;;;13.4;;
13057;SDS011;6595;49.578;11.012;2024-01-15T01:06:23;32.3;;;11.0;;
13057;SDS011;6595;49.578;11.012;2024-01-15T01:08:23;40.6;;;13.0;;
13057;SDS011;6595;49.578;11.012;2024-01-15T01:10:24;36.8;;;13.1;;
13057;SDS011;6595;49.578;11.012;2024-01-15T01:12:23;36.8;;;13.1;;
13057;SDS011;6595;49.578;11.012;2024-01-15T01:14:23;39.3;;;13.3;;
13057;SDS011;6595;49.578;11.012;2024-01-15T01:16:23;37.4;;;12.6;;
13057;SDS011;6595;49.578;11.012;2024-01-15T01:18:23;37.4;;;12.6;;
13057;SDS011;6595;49.578;11.012;2024-01-15T01:20:23;36.4;;;12.6;;
13057;SDS011;6595;49.578;11.012;2024-01-15T01:22:23;34.8;;;11.9;;
13057;SDS011;6595;49.578;11.012;2024-01-15T01:24:24;33.8;;;12.2;;
13057;SDS011;6595;49.578;11.012;2024-01-15T01:26:24;35.8;;;12.6;;
13057;SDS011;6595;49.578;11.012;2024-01-15T01:28:23;35.6;;;12.8;;
13057;SDS011;6595;49.578;11.012;2024-01-15T01:30:23;35.6;;;12.8;;
13057;SDS011;6595;49.578;11.012;2024-01-15T01:32:23;38.7;;;13.3;;
13057;SDS011;6595;49.578;11.012;2024-01-15T01:34:23;37.2;;;12.2;;
13057;SDS011;6595;49.578;11.012;2024-01-15T01:36:23;37.2;;;12.2;;
13057;SDS011;6595;49.578;11.012;2024-01-15T01:38:23;41.3;;;13.3;;
13057;SDS011;6595;49.578;11.012;2024-01-15T01:40:23;41.3;;;13.3;;
13057;SDS011;6595;49.578;11.012;2024-01-15T01:42:23;37.6;;;12.9;;
13057;SDS011;6595;49.578;11.012;2024-01-15T01:44:23;38.4;;;12.4;;
13057;SDS011;6595;49.578;11.012;2024-01-15T01:46:24;34.9;;;12.3;;
13057;SDS011;6595;49.578;11.012;2024-01-15T01:48:23;39.6;;;12.9;;
13057;SDS011;6595;49.578;11.012;2024-01-15T01:50:23;39.6;;;12.9;;
13057;SDS011;6595;49.578;11.012;2024-01-15T01:52:23;37.6;;;12.0;;
13057;SDS011;6595;49.578;11.012;2024-01-15T01:54:23;37.7;;;12.7;;
13057;SDS011;6595;49.578;11.012;2024-01-15T01:56:23;36.3;;;12.4;;
13057;SDS011;6595;49.578;11.012;2024-01-15T01:58:23;35.5;;;12.5;;
13057;SDS011;6595;49.578;11.012;2024-01-15T02:00:24;35.5;;;12.5;;
13057;SDS011;6595;49.578;11.012;2024-01-15T02:02:23;37.7;;;12.9;;
13057;SDS011;6595;49.578;11.012;2024-01-15T02:04:23;34.4;;;12.6;;
13057;SDS011;6595;49.578;11.012;2024-01-15T02:06:23;36.0;;;12.1;;
13057;SDS011;6595;49.578;11.012;2024-01-15T02:08:23;36.0;;;12.1;;
13057;SDS011;6595;49.578;11.012;2024-01-15T02:10:23;39.1;;;14.4;;
13057;SDS011;6595;49.578;11.012;2024-01-15T02:12:24;36.5;;;13.3;;
13057;SDS011;6595;49.578;11.012;2024-01-15T02:14:24;36.1;;;12.5;;
13057;SDS011;6595;49.578;11.012;2024-01-15T02:16:23;37.8;;;12.8;;
13057;SDS011;6595;49.578;11.012;2024-01-15T02:18:23;37.8;;;12.8;;
13057;SDS011;6595;49.578;11.012;2024-01-15T02:20:23;39.3;;;13.5;;
13057;SDS011;6595;49.578;11.012;2024-01-15T02:22:23;39.2;;;13.4;;
13057;SDS011;6595;49.578;11.012;2024-01-15T02:24:23;36.8;;;13.3;;
13057;SDS011;6595;49.578;11.012;2024-01-15T02:26:23;36.8;;;13.3;;
13057;SDS011;6595;49.578;11.012;2024-01-15T02:28:23;36.4;;;13.2;;
13057;SDS011;6595;49.578;11.012;2024-01-15T02:30:24;39.1;;;13.2;;
13057;SDS011;6595;49.578;11.012;2024-01-15T02:32:24;40.6;;;12.9;;
13057;SDS011;6595;49.578;11.012;2024-01-15T02:34:24;34.9;;;12.6;;
13057;SDS011;6595;49.578;11.012;2024-01-15T02:36:23;34.9;;;12.6;;
13057;SDS011;6595;49.578;11.012;2024-01-15T02:38:24;35.5;;;12.7;;
13057;SDS011;6595;49.578;11.012;2024-01-15T02:40:23;39.4;;;13.1;;
13057;SDS011;6595;49.578;11.012;2024-01-15T02:42:23;37.5;;;13.5;;
13057;SDS011;6595;49.578;11.012;2024-01-15T02:44:23;38.5;;;13.3;;
13057;SDS011;6595;49.578;11.012;2024-01-15T02:46:24;38.5;;;13.3;;
13057;SDS011;6595;49.578;11.012;2024-01-15T02:48:24;33.9;;;12.5;;
13057;SDS011;6595;49.578;11.012;2024-01-15T02:50:24;37.5;;;12.7;;
13057;SDS011;6595;49.578;11.012;2024-01-15T02:52:23;36.0;;;12.5;;
13057;SDS011;6595;49.578;11.012;2024-01-15T02:54:23;36.0;;;12.5;;
13057;SDS011;6595;49.578;11.012;2024-01-15T02:56:23;32.1;;;12.4;;
13057;SDS011;6595;49.578;11.012;2024-01-15T02:58:23;37.0;;;13.0;;
13057;SDS011;6595;49.578;11.012;2024-01-15T03:00:24;38.2;;;13.2;;
13057;SDS011;6595;49.578;11.012;2024-01-15T03:02:24;33.0;;;11.4;;
13057;SDS011;6595;49.578;11.012;2024-01-15T03:04:24;35.6;;;13.3;;
13057;SDS011;6595;49.578;11.012;2024-01-15T03:06:23;35.6;;;13.3;;
13057;SDS011;6595;49.578;11.012;2024-01-15T03:08:23;34.3;;;12.6;;
13057;SDS011;6595;49.578;11.012;2024-01-15T03:10:23;29.2;;;11.8;;
13057;SDS011;6595;49.578;11.012;2024-01-15T03:12:23;36.7;;;13.9;;
13057;SDS011;6595;49.578;11.012;2024-01-15T03:14:23;36.7;;;13.9;;
13057;SDS011;6595;49.578;11.012;2024-01-15T03:16:23;30.9;;;11.7;;
13057;SDS011;6595;49.578;11.012;2024-01-15T03:18:24;34.9;;;12.1;;
13057;SDS011;6595;49.578;11.012;2024-01-15T03:20:23;33.2;;;12.3;;
13057;SDS011;6595;49.578;11.012;2024-01-15T03:22:23;25.1;;;11.1;;
13057;SDS011;6595;49.578;11.012;2024-01-15T03:24:23;25.1;;;11.1;;
13057;SDS011;6595;49.578;11.012;2024-01-15T03:26:23;33.5;;;11.9;;
13057;SDS011;6595;49.578;11.012;2024-01-15T03:28:23;31.7;;;11.8;;
13057;SDS011;6595;49.578;11.012;2024-01-15T03:30:23;31.9;;;12.7;;
13057;SDS011;6595;49.578;11.012;2024-01-15T03:32:23;30.3;;;11.6;;
13057;SDS011;6595;49.578;11.012;2024-01-15T03:34:23;30.3;;;11.6;;
13057;SDS011;6595;49.578;11.012;2024-01-15T03:36:23;34.6;;;12.7;;
13057;SDS011;6595;49.578;11.012;2024-01-15T03:38:24;31.1;;;11.2;;
13057;SDS011;6595;49.578;11.012;2024-01-15T03:40:23;35.1;;;12.0;;
13057;SDS011;6595;49.578;11.012;2024-01-15T03:42:23;35.1;;;12.0;;
13057;SDS011;6595;49.578;11.012;2024-01-15T03:44:23;31.2;;;11.8;;
13057;SDS011;6595;49.578;11.012;2024-01-15T03:46:23;35.3;;;12.2;;
13057;SDS011;6595;49.578;11.012;2024-01-15T03:48:24;32.5;;;12.6;;
13057;SDS011;6595;49.578;11.012;2024-01-15T03:50:24;35.4;;;12.6;;
13057;SDS011;6595;49.578;11.012;2024-01-15T03:52:23;28.8;;;10.8;;
13057;SDS011;6595;49.578;11.012;2024-01-15T03:54:23;28.8;;;10.8;;
13057;SDS011;6595;49.578;11.012;2024-01-15T03:56:23;30.8;;;10.6;;
13057;SDS011;6595;49.578;11.012;2024-01-15T03:58:23;29.4;;;11.7;;
13057;SDS011;6595;49.578;11.012;2024-01-15T04:00:24;29.4;;;11.7;;
13057;SDS011;6595;49.578;11.012;2024-01-15T04:02:24;28.3;;;10.8;;
13057;SDS011;6595;49.578;11.012;2024-01-15T04:04:23;28.3;;;10.8;;
13057;SDS011;6595;49.578;11.012;2024-01-15T04:06:23;28.1;;;10.2;;
13057;SDS011;6595;49.578;11.012;2024-01-15T04:08:23;26.9;;;10.4;;
13057;SDS011;6595;49.578;11.012;2024-01-15T04:10:23;26.9;;;10.4;;
13057;SDS011;6595;49.578;11.012;2024-01-15T04:12:23;26.9;;;10.4;;
13057;SDS011;6595;49.578;11.012;2024-01-15T04:14:23;30.1;;;10.7;;
13057;SDS011;6595;49.578;11.012;2024-01-15T04:16:24;25.6;;;9.7;;
13057;SDS011;6595;49.578;11.012;2024-01-15T04:18:23;21.8;;;10.0;;
13057;SDS011;6595;49.578;11.012;2024-01-15T04:20:23;31.0;;;10.5;;
13057;SDS011;6595;49.578;11.012;2024-01-15T04:22:23;24.7;;;9.8;;
13057;SDS011;6595;49.578;11.012;2024-01-15T04:24:23;24.7;;;9.8;;
13057;SDS011;6595;49.578;11.012;2024-01-15T04:26:23;22.6;;;9.7;;
13057;SDS011;6595;49.578;11.012;2024-01-15T04:28:23;27.0;;;10.4;;
13057;SDS011;6595;49.578;11.012;2024-01-15T04:30:24;27.0;;;10.4;;
13057;SDS011;6595;49.578;11.012;2024-01-15T04:32:23;25.3;;;9.5;;
13057;SDS011;6595;49.578;11.012;2024-01-15T04:34:23;24.3;;;9.4;;
13057;SDS011;6595;49.578;11.012;2024-01-15T04:36:23;24.1;;;9.9;;
13057;SDS011;6595;49.578;11.012;2024-01-15T04:38:23;30.3;;;10.0;;
13057;SDS011;6595;49.578;11.012;2024-01-15T04:40:23;27.0;;;9.3;;
13057;SDS011;6595;49.578;11.012;2024-01-15T04:42:24;27.0;;;9.3;;
13057;SDS011;6595;49.578;11.012;2024-01-15T04:44:24;27.0;;;9.3;;
13057;SDS011;6595;49.578;11.012;2024-01-15T04:46:23;26.4;;;9.8;;
13057;SDS011;6595;49.578;11.012;2024-01-15T04:48:23;23.2;;;10.5;;
13057;SDS011;6595;49.578;11.012;2024-01-15T04:50:23;23.2;;;10.5;;
13057;SDS011;6595;49.578;11.012;2024-01-15T04:52:23;22.0;;;9.0;;
13057;SDS011;6595;49.578;11.012;2024-01-15T04:54:24;25.0;;;9.7;;
13057;SDS011;6595;49.578;11.012;2024-01-15T04:56:23;27.6;;;10.1;;
13057;SDS011;6595;49.578;11.012;2024-01-15T04:58:23;27.6;;;10.1;;
13057;SDS011;6595;49.578;11.012;2024-01-15T05:00:23;26.4;;;9.7;;
13057;SDS011;6595;49.578;11.012;2024-01-15T05:02:23;26.4;;;9.7;;
13057;SDS011;6595;49.578;11.012;2024-01-15T05:04:23;27.9;;;10.0;;
13057;SDS011;6595;49.578;11.012;2024-01-15T05:06:23;23.8;;;9.1;;
13057;SDS011;6595;49.578;11.012;2024-01-15T05:08:23;23.8;;;9.1;;
13057;SDS011;6595;49.578;11.012;2024-01-15T05:10:24;28.9;;;9.9;;
13057;SDS011;6595;49.578;11.012;2024-01-15T05:12:23;28.9;;;10.6;;
13057;SDS011;6595;49.578;11.012;2024-01-15T05:14:23;26.5;;;9.8;;
13057;SDS011;6595;49.578;11.012;2024-01-15T05:16:23;29.3;;;9.6;;
13057;SDS011;6595;49.578;11.012;2024-01-15T05:18:23;29.3;;;9.6;;
13057;SDS011;6595;49.578;11.012;2024-01-15T05:20:23;25.3;;;9.7;;
13057;SDS011;6595;49.578;11.012;2024-01-15T05:22:23;27.2;;;10.6;;
13057;SDS011;6595;49.578;11.012;2024-01-15T05:24:23;24.8;;;9.5;;
13057;SDS011;6595;49.578;11.012;2024-01-15T05:26:23;24.8;;;9.5;;
13057;SDS011;6595;49.578;11.012;2024-01-15T05:28:24;25.8;;;9.9;;
13057;SDS011;6595;49.578;11.012;2024-01-15T05:30:24;25.8;;;9.9;;
13057;SDS011;6595;49.578;11.012;2024-01-15T05:32:24;28.0;;;10.0;;
13057;SDS011;6595;49.578;11.012;2024-01-15T05:34:23;27.4;;;10.3;;
13057;SDS011;6595;49.578;11.012;2024-01-15T05:36:23;27.4;;;10.3;;
13057;SDS011;6595;49.578;11.012;2024-01-15T05:38:23;26.1;;;10.8;;
13057;SDS011;6595;49.578;11.012;2024-01-15T05:40:24;26.1;;;10.8;;
13057;SDS011;6595;49.578;11.012;2024-01-15T05:42:24;24.7;;;9.4;;
13057;SDS011;6595;49.578;11.012;2024-01-15T05:44:24;26.4;;;9.9;;
13057;SDS011;6595;49.578;11.012;2024-01-15T05:46:23;25.6;;;9.5;;
13057;SDS011;6595;49.578;11.012;2024-01-15T05:48:23;28.0;;;10.2;;
13057;SDS011;6595;49.578;11.012;2024-01-15T05:50:23;28.0;;;10.2;;
13057;SDS011;6595;49.578;11.012;2024-01-15T05:52:23;26.5;;;10.2;;
13057;SDS011;6595;49.578;11.012;2024-01-15T05:54:23;23.6;;;9.7;;
13057;SDS011;6595;49.578;11.012;2024-01-15T05:56:24;25.2;;;9.4;;
13057;SDS011;6595;49.578;11.012;2024-01-15T05:58:23;25.5;;;9.8;;
13057;SDS011;6595;49.578;11.012;2024-01-15T06:00:23;25.5;;;9.8;;
13057;SDS011;6595;49.578;11.012;2024-01-15T06:02:23;24.7;;;10.2;;
13057;SDS011;6595;49.578;11.012;2024-01-15T06:04:23;31.3;;;10.4;;
13057;SDS011;6595;49.578;11.012;2024-01-15T06:06:23;25.6;;;10.1;;
13057;SDS011;6595;49.578;11.012;2024-01-15T06:08:23;26.3;;;10.8;;
13057;SDS011;6595;49.578;11.012;2024-01-15T06:10:23;26.3;;;10.8;;
13057;SDS011;6595;49.578;11.012;2024-01-15T06:12:23;27.2;;;9.9;;
13057;SDS011;6595;49.578;11.012;2024-01-15T06:14:23;26.4;;;9.7;;
13057;SDS011;6595;49.578;11.012;2024-01-15T06:16:23;25.2;;;9.7;;
13057;SDS011;6595;49.578;11.012;2024-01-15T06:18:24;25.2;;;9.7;;
13057;SDS011;6595;49.578;11.012;2024-01-15T06:20:24;28.3;;;10.7;;
13057;SDS011;6595;49.578;11.012;2024-01-15T06:22:23;28.4;;;10.3;;
13057;SDS011;6595;49.578;11.012;2024-01-15T06:24:23;26.8;;;9.9;;
13057;SDS011;6595;49.578;11.012;2024-01-15T06:26:23;29.3;;;11.2;;
13057;SDS011;6595;49.578;11.012;2024-01-15T06:28:23;29.3;;;11.2;;
13057;SDS011;6595;49.578;11.012;2024-01-15T06:30:23;27.5;;;10.0;;
13057;SDS011;6595;49.578;11.012;2024-01-15T06:32:23;26.8;;;10.5;;
13057;SDS011;6595;49.578;11.012;2024-01-15T06:34:23;28.5;;;10.6;;
13057;SDS011;6595;49.578;11.012;2024-01-15T06:36:24;28.5;;;10.6;;
13057;SDS011;6595;49.578;11.012;2024-01-15T06:38:24;24.5;;;10.3;;
13057;SDS011;6595;49.578;11.012;2024-01-15T06:40:23;24.5;;;10.3;;
13057;SDS011;6595;49.578;11.012;2024-01-15T06:42:23;26.8;;;10.4;;
13057;SDS011;6595;49.578;11.012;2024-01-15T06:44:23;26.8;;;10.4;;
13057;SDS011;6595;49.578;11.012;2024-01-15T06:46:23;27.7;;;10.1;;
13057;SDS011;6595;49.578;11.012;2024-01-15T06:48:24;27.7;;;10.1;;
13057;SDS011;6595;49.578;11.012;2024-01-15T06:50:24;30.2;;;10.3;;
13057;SDS011;6595;49.578;11.012;2024-01-15T06:52:24;26.6;;;10.0;;
13057;SDS011;6595;49.578;11.012;2024-01-15T06:54:23;24.2;;;10.0;;
13057;SDS011;6595;49.578;11.012;2024-01-15T06:56:23;24.2;;;10.0;;
13057;SDS011;6595;49.578;11.012;2024-01-15T06:58:23;26.7;;;9.9;;
13057;SDS011;6595;49.578;11.012;2024-01-15T07:00:23;25.0;;;10.5;;
13057;SDS011;6595;49.578;11.012;2024-01-15T07:02:23;30.4;;;10.1;;
13057;SDS011;6595;49.578;11.012;2024-01-15T07:04:24;24.7;;;10.1;;
13057;SDS011;6595;49.578;11.012;2024-01-15T07:06:23;24.7;;;10.1;;
13057;SDS011;6595;49.578;11.012;2024-01-15T07:08:23;23.6;;;9.9;;
13057;SDS011;6595;49.578;11.012;2024-01-15T07:10:23;24.5;;;10.2;;
13057;SDS011;6595;49.578;11.012;2024-01-15T07:12:23;27.4;;;10.5;;
13057;SDS011;6595;49.578;11.012;2024-01-15T07:14:23;27.4;;;10.5;;
13057;SDS011;6595;49.578;11.012;2024-01-15T07:16:23;23.1;;;9.9;;
13057;SDS011;6595;49.578;11.012;2024-01-15T07:18:24;25.6;;;10.0;;
13057;SDS011;6595;49.578;11.012;2024-01-15T07:20:24;24.1;;;9.8;;
13057;SDS011;6595;49.578;11.012;2024-01-15T07:22:23;26.3;;;10.1;;
13057;SDS011;6595;49.578;11.012;2024-01-15T07:24:23;26.3;;;10.1;;
13057;SDS011;6595;49.578;11.012;2024-01-15T07:26:23;22.7;;;9.0;;
13057;SDS011;6595;49.578;11.012;2024-01-15T07:28:24;25.6;;;9.7;;
13057;SDS011;6595;49.578;11.012;2024-01-15T07:30:23;27.1;;;10.0;;
13057;SDS011;6595;49.578;11.012;2024-01-15T07:32:23;23.3;;;9.7;;
13057;SDS011;6595;49.578;11.012;2024-01-15T07:34:23;24.6;;;9.8;;
13057;SDS011;6595;49.578;11.012;2024-01-15T07:36:23;24.6;;;9.8;;
13057;SDS011;6595;49.578;11.012;2024-01-15T07:38:23;26.4;;;9.2;;
13057;SDS011;6595;49.578;11.012;2024-01-15T07:40:23;27.2;;;10.2;;
13057;SDS011;6595;49.578;11.012;2024-01-15T07:42:24;23.0;;;9.5;;
13057;SDS011;6595;49.578;11.012;2024-01-15T07:44:24;24.9;;;9.5;;
13057;SDS011;6595;49.578;11.012;2024-01-15T07:46:24;24.9;;;9.5;;
13057;SDS011;6595;49.578;11.012;2024-01-15T07:48:23;24.0;;;9.1;;
13057;SDS011;6595;49.578;11.012;2024-01-15T07:50:23;24.2;;;9.5;;
13057;SDS011;6595;49.578;11.012;2024-01-15T07:52:23;23.1;;;9.1;;
13057;SDS011;6595;49.578;11.012;2024-01-15T07:54:23;23.1;;;9.1;;
13057;SDS011;6595;49.578;11.012;2024-01-15T07:56:23;23.6;;;9.7;;
13057;SDS011;6595;49.578;11.012;2024-01-15T07:58:23;21.6;;;9.1;;
13057;SDS011;6595;49.578;11.012;2024-01-15T08:00:24;21.3;;;9.0;;
13057;SDS011;6595;49.578;11.012;2024-01-15T08:02:23;21.3;;;9.0;;
13057;SDS011;6595;49.578;11.012;2024-01-15T08:04:23;21.9;;;9.8;;
13057;SDS011;6595;49.578;11.012;2024-01-15T08:06:23;23.9;;;9.4;;
13057;SDS011;6595;49.578;11.012;2024-01-15T08:08:23;27.8;;;10.6;;
13057;SDS011;6595;49.578;11.012;2024-01-15T08:10:23;24.4;;;9.7;;
13057;SDS011;6595;49.578;11.012;2024-01-15T08:12:24;24.4;;;9.7;;
13057;SDS011;6595;49.578;11.012;2024-01-15T08:14:24;29.2;;;10.4;;
13057;SDS011;6595;49.578;11.012;2024-01-15T08:16:23;23.9;;;8.5;;
13057;SDS011;6595;49.578;11.012;2024-01-15T08:18:23;27.7;;;9.9;;
13057;SDS011;6595;49.578;11.012;2024-01-15T08:20:23;25.3;;;10.1;;
13057;SDS011;6595;49.578;11.012;2024-01-15T08:22:23;26.1;;;10.1;;
13057;SDS011;6595;49.578;11.012;2024-01-15T08:24:24;26.1;;;10.1;;
13057;SDS011;6595;49.578;11.012;2024-01-15T08:26:24;26.1;;;9.8;;
13057;SDS011;6595;49.578;11.012;2024-01-15T08:28:23;22.7;;;10.0;;
13057;SDS011;6595;49.578;11.012;2024-01-15T08:30:23;24.6;;;9.5;;
13057;SDS011;6595;49.578;11.012;2024-01-15T08:32:23;24.6;;;9.5;;
13057;SDS011;6595;49.578;11.012;2024-01-15T08:34:23;25.2;;;10.0;;
13057;SDS011;6595;49.578;11.012;2024-01-15T08:36:23;23.9;;;9.3;;
13057;SDS011;6595;49.578;11.012;2024-01-15T08:38:23;23.5;;;10.1;;
13057;SDS011;6595;49.578;11.012;2024-01-15T08:40:23;23.5;;;10.1;;
13057;SDS011;6595;49.578;11.012;2024-01-15T08:42:23;24.1;;;9.3;;
13057;SDS011;6595;49.578;11.012;2024-01-15T08:44:23;28.3;;;10.3;;
13057;SDS011;6595;49.578;11.012;2024-01-15T08:46:23;25.0;;;8.9;;
13057;SDS011;6595;49.578;11.012;2024-01-15T08:48:23;23.4;;;9.2;;
13057;SDS011;6595;49.578;11.012;2024-01-15T08:50:23;24.1;;;9.2;;
13057;SDS011;6595;49.578;11.012;2024-01-15T08:52:23;24.1;;;9.2;;
13057;SDS011;6595;49.578;11.012;2024-01-15T08:54:23;22.0;;;9.4;;
13057;SDS011;6595;49.578;11.012;2024-01-15T08:56:23;21.6;;;9.1;;
13057;SDS011;6595;49.578;11.012;2024-01-15T08:58:23;21.5;;;8.3;;
13057;SDS011;6595;49.578;11.012;2024-01-15T09:00:23;19.8;;;8.9;;
13057;SDS011;6595;49.578;11.012;2024-01-15T09:02:23;19.8;;;8.9;;
13057;SDS011;6595;49.578;11.012;2024-01-15T09:04:24;22.1;;;9.3;;
13057;SDS011;6595;49.578;11.012;2024-01-15T09:06:23;22.8;;;9.3;;
13057;SDS011;6595;49.578;11.012;2024-01-15T09:08:23;21.7;;;9.3;;
13057;SDS011;6595;49.578;11.012;2024-01-15T09:10:23;20.6;;;9.1;;
13057;SDS011;6595;49.578;11.012;2024-01-15T09:12:23;20.6;;;9.1;;
13057;SDS011;6595;49.578;11.012;2024-01-15T09:14:24;24.8;;;9.8;;
13057;SDS011;6595;49.578;11.012;2024-01-15T09:16:23;23.4;;;9.2;;
13057;SDS011;6595;49.578;11.012;2024-01-15T09:18:23;27.8;;;9.9;;
13057;SDS011;6595;49.578;11.012;2024-01-15T09:20:23;27.8;;;9.9;;
13057;SDS011;6595;49.578;11.012;2024-01-15T09:22:23;27.0;;;10.3;;
13057;SDS011;6595;49.578;11.012;2024-01-15T09:24:23;23.1;;;9.2;;
13057;SDS011;6595;49.578;11.012;2024-01-15T09:26:24;24.8;;;9.9;;
13057;SDS011;6595;49.578;11.012;2024-01-15T09:28:23;23.0;;;9.6;;
13057;SDS011;6595;49.578;11.012;2024-01-15T09:30:23;23.0;;;9.6;;
13057;SDS011;6595;49.578;11.012;2024-01-15T09:32:23;22.4;;;9.3;;
13057;SDS011;6595;49.578;11.012;2024-01-15T09:34:23;23.7;;;9.5;;
13057;SDS011;6595;49.578;11.012;2024-01-15T09:36:23;25.2;;;9.7;;
13057;SDS011;6595;49.578;11.012;2024-01-15T09:38:23;19.2;;;8.3;;
13057;SDS011;6595;49.578;11.012;2024-01-15T09:40:23;19.2;;;8.3;;
13057;SDS011;6595;49.578;11.012;2024-01-15T09:42:23;19.2;;;8.3;;
13057;SDS011;6595;49.578;11.012;2024-01-15T09:44:23;22.9;;;8.4;;
13057;SDS011;6595;49.578;11.012;2024-01-15T09:46:24;19.5;;;9.0;;
13057;SDS011;6595;49.578;11.012;2024-01-15T09:48:23;18.4;;;8.2;;
13057;SDS011;6595;49.578;11.012;2024-01-15T09:50:23;18.4;;;8.2;;
13057;SDS011;6595;49.578;11.012;2024-01-15T09:52:23;22.9;;;8.9;;
13057;SDS011;6595;49.578;11.012;2024-01-15T09:54:24;22.9;;;9.1;;
13057;SDS011;6595;49.578;11.012;2024-01-15T09:56:24;21.0;;;9.1;;
13057;SDS011;6595;49.578;11.012;2024-01-15T09:58:23;21.3;;;9.4;;
13057;SDS011;6595;49.578;11.012;2024-01-15T10:00:23;21.3;;;9.4;;
13057;SDS011;6595;49.578;11.012;2024-01-15T10:02:23;20.8;;;9.7;;
13057;SDS011;6595;49.578;11.012;2024-01-15T10:04:23;21.0;;;9.0;;
13057;SDS011;6595;49.578;11.012;2024-01-15T10:06:24;23.4;;;9.2;;
13057;SDS011;6595;49.578;11.012;2024-01-15T10:08:24;23.4;;;9.2;;
13057;SDS011;6595;49.578;11.012;2024-01-15T10:10:23;19.4;;;8.9;;
13057;SDS011;6595;49.578;11.012;2024-01-15T10:12:23;21.5;;;9.2;;
13057;SDS011;6595;49.578;11.012;2024-01-15T10:14:23;24.6;;;10.4;;
13057;SDS011;6595;49.578;11.012;2024-01-15T10:16:23;24.6;;;10.4;;
13057;SDS011;6595;49.578;11.012;2024-01-15T10:18:24;20.3;;;9.5;;
13057;SDS011;6595;49.578;11.012;2024-01-15T10:20:24;18.2;;;8.3;;
13057;SDS011;6595;49.578;11.012;2024-01-15T10:22:23;20.4;;;8.8;;
13057;SDS011;6595;49.578;11.012;2024-01-15T10:24:23;22.2;;;9.1;;
13057;SDS011;6595;49.578;11.012;2024-01-15T10:26:24;22.5;;;9.4;;
13057;SDS011;6595;49.578;11.012;2024-01-15T10:28:25;22.5;;;9.4;;
13057;SDS011;6595;49.578;11.012;2024-01-15T10:30:23;22.0;;;9.6;;
13057;SDS011;6595;49.578;11.012;2024-01-15T10:32:23;20.0;;;8.9;;
13057;SDS011;6595;49.578;11.012;2024-01-15T10:34:24;19.8;;;7.9;;
13057;SDS011;6595;49.578;11.012;2024-01-15T10:36:24;20.9;;;8.9;;
13057;SDS011;6595;49.578;11.012;2024-01-15T10:38:24;20.9;;;8.9;;
13057;SDS011;6595;49.578;11.012;2024-01-15T10:40:23;20.5;;;8.7;;
13057;SDS011;6595;49.578;11.012;2024-01-15T10:42:23;20.9;;;8.7;;
13057;SDS011;6595;49.578;11.012;2024-01-15T10:44:23;18.7;;;8.1;;
13057;SDS011;6595;49.578;11.012;2024-01-15T10:46:24;17.5;;;7.8;;
13057;SDS011;6595;49.578;11.012;2024-01-15T10:48:23;17.5;;;7.8;;
13057;SDS011;6595;49.578;11.012;2024-01-15T10:50:24;19.2;;;7.9;;
13057;SDS011;6595;49.578;11.012;2024-01-15T10:52:23;20.8;;;8.0;;
13057;SDS011;6595;49.578;11.012;2024-01-15T10:54:23;15.4;;;8.1;;
13057;SDS011;6595;49.578;11.012;2024-01-15T10:56:23;15.4;;;8.1;;
13057;SDS011;6595;49.578;11.012;2024-01-15T10:58:24;18.8;;;8.0;;
13057;SDS011;6595;49.578;11.012;2024-01-15T11:00:24;18.1;;;8.8;;
13057;SDS011;6595;49.578;11.012;2024-01-15T11:02:24;18.8;;;8.3;;
13057;SDS011;6595;49.578;11.012;2024-01-15T11:04:23;22.4;;;9.4;;
13057;SDS011;6595;49.578;11.012;2024-01-15T11:06:24;22.4;;;9.4;;
13057;SDS011;6595;49.578;11.012;2024-01-15T11:08:24;17.2;;;8.4;;
13057;SDS011;6595;49.578;11.012;2024-01-15T11:12:23;20.9;;;8.7;;
13057;SDS011;6595;49.578;11.012;2024-01-15T11:16:23;18.4;;;8.1;;
13057;SDS011;6595;49.578;11.012;2024-01-15T11:18:25;16.6;;;8.1;;
13057;SDS011;6595;49.578;11.012;2024-01-15T11:20:23;16.6;;;8.1;;
13057;SDS011;6595;49.578;11.012;2024-01-15T11:26:31;17.5;;;8.1;;
13057;SDS011;6595;49.578;11.012;2024-01-15T11:30:24;22.0;;;9.0;;
13057;SDS011;6595;49.578;11.012;2024-01-15T11:32:23;22.0;;;9.0;;
13057;SDS011;6595;49.578;11.012;2024-01-15T11:38:26;18.1;;;8.3;;
13057;SDS011;6595;49.578;11.012;2024-01-15T11:40:36;20.8;;;9.4;;
13057;SDS011;6595;49.578;11.012;2024-01-15T11:42:24;20.0;;;8.6;;
13057;SDS011;6595;49.578;11.012;2024-01-15T11:44:24;20.0;;;9.2;;
13057;SDS011;6595;49.578;11.012;2024-01-15T11:46:23;20.0;;;9.2;;
13057;SDS011;6595;49.578;11.012;2024-01-15T11:48:23;18.7;;;8.0;;
13057;SDS011;6595;49.578;11.012;2024-01-15T11:50:23;20.3;;;8.9;;
13057;SDS011;6595;49.578;11.012;2024-01-15T11:52:23;20.3;;;8.9;;
13057;SDS011;6595;49.578;11.012;2024-01-15T11:54:24;18.1;;;8.4;;
13057;SDS011;6595;49.578;11.012;2024-01-15T11:56:24;17.7;;;8.9;;
13057;SDS011;6595;49.578;11.012;2024-01-15T11:58:23;16.7;;;8.2;;
13057;SDS011;6595;49.578;11.012;2024-01-15T12:00:23;17.8;;;8.4;;
13057;SDS011;6595;49.578;11.012;2024-01-15T12:02:23;15.6;;;7.6;;
13057;SDS011;6595;49.578;11.012;2024-01-15T12:04:23;15.6;;;7.6;;
13057;SDS011;6595;49.578;11.012;2024-01-15T12:06:23;15.1;;;7.4;;
13057;SDS011;6595;49.578;11.012;2024-01-15T12:08:23;17.2;;;7.9;;
13057;SDS011;6595;49.578;11.012;2024-01-15T12:10:24;17.2;;;7.9;;
13057;SDS011;6595;49.578;11.012;2024-01-15T12:12:24;19.1;;;8.9;;
13057;SDS011;6595;49.578;11.012;2024-01-15T12:14:23;19.1;;;8.9;;
13057;SDS011;6595;49.578;11.012;2024-01-15T12:16:23;18.4;;;9.1;;
13057;SDS011;6595;49.578;11.012;2024-01-15T12:18:23;19.3;;;8.4;;
13057;SDS011;6595;49.578;11.012;2024-01-15T12:20:23;17.7;;;8.1;;